sensor_id;sensor_type;location;lat;lon;timestamp;P1;durP1;ratioP1;P2;durP2;ratioP2
4106;SDS011;21906;50.812;7.132;2023-04-06T00:00:50;12.87;;;9.23;;
4106;SDS011;21906;50.812;7.132;2023-04-06T00:03:16;17.70;;;10.07;;
4106;SDS011;21906;50.812;7.132;2023-04-06T00:05:41;12.20;;;9.90;;
4106;SDS011;21906;50.812;7.132;2023-04-06T00:08:07;12.30;;;9.97;;
4106;SDS011;21906;50.812;7.132;2023-04-06T00:10:33;12.77;;;10.33;;
4106;SDS011;21906;50.812;7.132;2023-04-06T00:12:59;11.67;;;9.80;;
4106;SDS011;21906;50.812;7.132;2023-04-06T00:15:25;10.90;;;9.13;;
4106;SDS011;21906;50.812;7.132;2023-04-06T00:17:51;12.10;;;9.03;;
4106;SDS011;21906;50.812;7.132;2023-04-06T00:20:17;12.97;;;9.67;;
4106;SDS011;21906;50.812;7.132;2023-04-06T00:22:43;11.87;;;9.57;;
4106;SDS011;21906;50.812;7.132;2023-04-06T00:25:10;11.70;;;9.33;;
4106;SDS011;21906;50.812;7.132;2023-04-06T00:27:36;10.33;;;8.37;;
4106;SDS011;21906;50.812;7.132;2023-04-06T00:30:06;15.63;;;9.90;;
4106;SDS011;21906;50.812;7.132;2023-04-06T00:32:34;10.50;;;8.80;;
4106;SDS011;21906;50.812;7.132;2023-04-06T00:35:04;12.70;;;10.00;;
4106;SDS011;21906;50.812;7.132;2023-04-06T00:37:31;13.20;;;10.10;;
4106;SDS011;21906;50.812;7.132;2023-04-06T00:39:57;12.33;;;9.03;;
4106;SDS011;21906;50.812;7.132;2023-04-06T00:42:23;14.30;;;9.73;;
4106;SDS011;21906;50.812;7.132;2023-04-06T00:44:53;12.73;;;9.10;;
4106;SDS011;21906;50.812;7.132;2023-04-06T00:47:20;11.87;;;9.20;;
4106;SDS011;21906;50.812;7.132;2023-04-06T00:49:46;10.07;;;9.10;;
4106;SDS011;21906;50.812;7.132;2023-04-06T00:52:12;12.80;;;9.20;;
4106;SDS011;21906;50.812;7.132;2023-04-06T00:54:38;14.93;;;9.40;;
4106;SDS011;21906;50.812;7.132;2023-04-06T00:57:04;12.30;;;9.30;;
4106;SDS011;21906;50.812;7.132;2023-04-06T00:59:30;13.43;;;9.53;;
4106;SDS011;21906;50.812;7.132;2023-04-06T01:01:57;14.80;;;9.87;;
4106;SDS011;21906;50.812;7.132;2023-04-06T01:04:23;10.03;;;8.80;;
4106;SDS011;21906;50.812;7.132;2023-04-06T01:06:49;11.77;;;8.70;;
4106;SDS011;21906;50.812;7.132;2023-04-06T01:09:16;11.00;;;9.00;;
4106;SDS011;21906;50.812;7.132;2023-04-06T01:11:42;11.30;;;9.30;;
4106;SDS011;21906;50.812;7.132;2023-04-06T01:14:08;11.93;;;8.97;;
4106;SDS011;21906;50.812;7.132;2023-04-06T01:16:33;15.77;;;9.43;;
4106;SDS011;21906;50.812;7.132;2023-04-06T01:19:00;10.87;;;8.57;;
4106;SDS011;21906;50.812;7.132;2023-04-06T01:21:26;12.90;;;9.17;;
4106;SDS011;21906;50.812;7.132;2023-04-06T01:23:51;12.63;;;9.00;;
4106;SDS011;21906;50.812;7.132;2023-04-06T01:26:17;11.50;;;8.27;;
4106;SDS011;21906;50.812;7.132;2023-04-06T01:28:43;12.97;;;9.20;;
4106;SDS011;21906;50.812;7.132;2023-04-06T01:31:10;14.90;;;9.67;;
4106;SDS011;21906;50.812;7.132;2023-04-06T01:33:35;10.27;;;8.80;;
4106;SDS011;21906;50.812;7.132;2023-04-06T01:36:01;10.67;;;8.90;;
4106;SDS011;21906;50.812;7.132;2023-04-06T01:38:28;11.27;;;9.27;;
4106;SDS011;21906;50.812;7.132;2023-04-06T01:40:54;12.73;;;9.47;;
4106;SDS011;21906;50.812;7.132;2023-04-06T01:43:20;10.90;;;8.97;;
4106;SDS011;21906;50.812;7.132;2023-04-06T01:45:45;12.40;;;9.40;;
4106;SDS011;21906;50.812;7.132;2023-04-06T01:48:11;12.27;;;8.23;;
4106;SDS011;21906;50.812;7.132;2023-04-06T01:50:37;11.27;;;9.10;;
4106;SDS011;21906;50.812;7.132;2023-04-06T01:53:02;13.03;;;9.07;;
4106;SDS011;21906;50.812;7.132;2023-04-06T01:55:28;14.17;;;8.93;;
4106;SDS011;21906;50.812;7.132;2023-04-06T01:57:54;9.30;;;8.37;;
4106;SDS011;21906;50.812;7.132;2023-04-06T02:00:20;12.57;;;9.40;;
4106;SDS011;21906;50.812;7.132;2023-04-06T02:02:46;11.73;;;8.70;;
4106;SDS011;21906;50.812;7.132;2023-04-06T02:05:12;13.53;;;9.60;;
4106;SDS011;21906;50.812;7.132;2023-04-06T02:07:37;14.20;;;8.87;;
4106;SDS011;21906;50.812;7.132;2023-04-06T02:10:03;12.37;;;9.70;;
4106;SDS011;21906;50.812;7.132;2023-04-06T02:12:29;13.60;;;9.30;;
4106;SDS011;21906;50.812;7.132;2023-04-06T02:14:55;12.07;;;9.30;;
4106;SDS011;21906;50.812;7.132;2023-04-06T02:17:21;11.20;;;9.20;;
4106;SDS011;21906;50.812;7.132;2023-04-06T02:19:46;12.90;;;9.60;;
4106;SDS011;21906;50.812;7.132;2023-04-06T02:22:12;9.47;;;8.47;;
4106;SDS011;21906;50.812;7.132;2023-04-06T02:24:38;10.70;;;8.30;;
4106;SDS011;21906;50.812;7.132;2023-04-06T02:27:04;11.37;;;8.73;;
4106;SDS011;21906;50.812;7.132;2023-04-06T02:29:30;10.50;;;8.63;;
4106;SDS011;21906;50.812;7.132;2023-04-06T02:31:55;11.77;;;8.83;;
4106;SDS011;21906;50.812;7.132;2023-04-06T02:34:21;13.77;;;8.87;;
4106;SDS011;21906;50.812;7.132;2023-04-06T02:36:47;10.13;;;8.50;;
4106;SDS011;21906;50.812;7.132;2023-04-06T02:39:14;11.63;;;8.70;;
4106;SDS011;21906;50.812;7.132;2023-04-06T02:41:40;10.07;;;8.23;;
4106;SDS011;21906;50.812;7.132;2023-04-06T02:44:07;9.23;;;8.27;;
4106;SDS011;21906;50.812;7.132;2023-04-06T02:46:34;11.17;;;8.70;;
4106;SDS011;21906;50.812;7.132;2023-04-06T02:49:00;10.93;;;8.87;;
4106;SDS011;21906;50.812;7.132;2023-04-06T02:51:26;11.27;;;8.93;;
4106;SDS011;21906;50.812;7.132;2023-04-06T02:53:52;14.00;;;9.23;;
4106;SDS011;21906;50.812;7.132;2023-04-06T02:56:18;10.83;;;9.07;;
4106;SDS011;21906;50.812;7.132;2023-04-06T02:58:46;12.43;;;8.43;;
4106;SDS011;21906;50.812;7.132;2023-04-06T03:01:12;12.03;;;9.20;;
4106;SDS011;21906;50.812;7.132;2023-04-06T03:03:37;10.87;;;8.97;;
4106;SDS011;21906;50.812;7.132;2023-04-06T03:06:03;11.80;;;9.30;;
4106;SDS011;21906;50.812;7.132;2023-04-06T03:08:29;10.30;;;8.60;;
4106;SDS011;21906;50.812;7.132;2023-04-06T03:10:55;11.00;;;9.07;;
4106;SDS011;21906;50.812;7.132;2023-04-06T03:13:20;10.87;;;8.60;;
4106;SDS011;21906;50.812;7.132;2023-04-06T03:15:46;11.93;;;9.70;;
4106;SDS011;21906;50.812;7.132;2023-04-06T03:18:12;15.97;;;9.60;;
4106;SDS011;21906;50.812;7.132;2023-04-06T03:20:38;13.67;;;9.10;;
4106;SDS011;21906;50.812;7.132;2023-04-06T03:23:04;11.60;;;8.30;;
4106;SDS011;21906;50.812;7.132;2023-04-06T03:25:29;10.90;;;9.33;;
4106;SDS011;21906;50.812;7.132;2023-04-06T03:27:55;12.37;;;9.17;;
4106;SDS011;21906;50.812;7.132;2023-04-06T03:30:21;10.37;;;8.67;;
4106;SDS011;21906;50.812;7.132;2023-04-06T03:32:47;14.63;;;8.77;;
4106;SDS011;21906;50.812;7.132;2023-04-06T03:35:13;17.33;;;9.23;;
4106;SDS011;21906;50.812;7.132;2023-04-06T03:37:38;13.30;;;9.20;;
4106;SDS011;21906;50.812;7.132;2023-04-06T03:40:04;12.23;;;8.10;;
4106;SDS011;21906;50.812;7.132;2023-04-06T03:42:31;13.87;;;10.00;;
4106;SDS011;21906;50.812;7.132;2023-04-06T03:44:57;9.97;;;8.43;;
4106;SDS011;21906;50.812;7.132;2023-04-06T03:47:23;14.13;;;9.00;;
4106;SDS011;21906;50.812;7.132;2023-04-06T03:49:50;11.37;;;8.77;;
4106;SDS011;21906;50.812;7.132;2023-04-06T03:52:15;12.47;;;9.77;;
4106;SDS011;21906;50.812;7.132;2023-04-06T03:54:41;11.80;;;9.17;;
4106;SDS011;21906;50.812;7.132;2023-04-06T03:57:07;15.23;;;9.70;;
4106;SDS011;21906;50.812;7.132;2023-04-06T03:59:32;11.50;;;8.40;;
4106;SDS011;21906;50.812;7.132;2023-04-06T04:01:58;12.73;;;8.90;;
4106;SDS011;21906;50.812;7.132;2023-04-06T04:04:24;12.80;;;8.57;;
4106;SDS011;21906;50.812;7.132;2023-04-06T04:06:50;10.10;;;8.50;;
4106;SDS011;21906;50.812;7.132;2023-04-06T04:09:16;11.17;;;8.50;;
4106;SDS011;21906;50.812;7.132;2023-04-06T04:11:41;11.97;;;8.70;;
4106;SDS011;21906;50.812;7.132;2023-04-06T04:14:07;11.80;;;9.57;;
4106;SDS011;21906;50.812;7.132;2023-04-06T04:16:33;11.67;;;9.03;;
4106;SDS011;21906;50.812;7.132;2023-04-06T04:18:59;12.00;;;8.93;;
4106;SDS011;21906;50.812;7.132;2023-04-06T04:21:25;12.10;;;8.80;;
4106;SDS011;21906;50.812;7.132;2023-04-06T04:23:51;15.63;;;9.87;;
4106;SDS011;21906;50.812;7.132;2023-04-06T04:26:17;14.90;;;9.70;;
4106;SDS011;21906;50.812;7.132;2023-04-06T04:28:43;12.10;;;9.00;;
4106;SDS011;21906;50.812;7.132;2023-04-06T04:31:09;14.20;;;9.30;;
4106;SDS011;21906;50.812;7.132;2023-04-06T04:33:35;13.13;;;9.40;;
4106;SDS011;21906;50.812;7.132;2023-04-06T04:36:01;12.50;;;9.20;;
4106;SDS011;21906;50.812;7.132;2023-04-06T04:38:26;14.83;;;10.13;;
4106;SDS011;21906;50.812;7.132;2023-04-06T04:40:52;12.37;;;8.53;;
4106;SDS011;21906;50.812;7.132;2023-04-06T04:43:18;12.57;;;9.23;;
4106;SDS011;21906;50.812;7.132;2023-04-06T04:45:46;12.20;;;9.47;;
4106;SDS011;21906;50.812;7.132;2023-04-06T04:48:12;13.37;;;10.17;;
4106;SDS011;21906;50.812;7.132;2023-04-06T04:50:38;12.00;;;9.30;;
4106;SDS011;21906;50.812;7.132;2023-04-06T04:53:03;13.47;;;9.37;;
4106;SDS011;21906;50.812;7.132;2023-04-06T04:55:32;9.03;;;8.03;;
4106;SDS011;21906;50.812;7.132;2023-04-06T04:57:58;12.57;;;9.47;;
4106;SDS011;21906;50.812;7.132;2023-04-06T05:00:24;11.73;;;9.30;;
4106;SDS011;21906;50.812;7.132;2023-04-06T05:02:50;13.20;;;9.10;;
4106;SDS011;21906;50.812;7.132;2023-04-06T05:05:16;12.60;;;8.83;;
4106;SDS011;21906;50.812;7.132;2023-04-06T05:07:42;12.27;;;8.87;;
4106;SDS011;21906;50.812;7.132;2023-04-06T05:10:07;11.80;;;8.93;;
4106;SDS011;21906;50.812;7.132;2023-04-06T05:12:34;11.90;;;9.23;;
4106;SDS011;21906;50.812;7.132;2023-04-06T05:15:00;13.33;;;9.90;;
4106;SDS011;21906;50.812;7.132;2023-04-06T05:17:26;12.57;;;9.40;;
4106;SDS011;21906;50.812;7.132;2023-04-06T05:19:51;11.07;;;9.30;;
4106;SDS011;21906;50.812;7.132;2023-04-06T05:22:17;14.57;;;9.17;;
4106;SDS011;21906;50.812;7.132;2023-04-06T05:24:43;11.50;;;8.60;;
4106;SDS011;21906;50.812;7.132;2023-04-06T05:27:09;12.83;;;9.50;;
4106;SDS011;21906;50.812;7.132;2023-04-06T05:29:35;15.13;;;10.27;;
4106;SDS011;21906;50.812;7.132;2023-04-06T05:32:01;13.20;;;8.80;;
4106;SDS011;21906;50.812;7.132;2023-04-06T05:34:27;11.30;;;8.77;;
4106;SDS011;21906;50.812;7.132;2023-04-06T05:36:53;15.37;;;10.47;;
4106;SDS011;21906;50.812;7.132;2023-04-06T05:39:19;13.73;;;10.13;;
4106;SDS011;21906;50.812;7.132;2023-04-06T05:41:45;15.73;;;10.57;;
4106;SDS011;21906;50.812;7.132;2023-04-06T05:44:10;18.97;;;10.27;;
4106;SDS011;21906;50.812;7.132;2023-04-06T05:46:36;15.03;;;10.50;;
4106;SDS011;21906;50.812;7.132;2023-04-06T05:49:02;12.40;;;9.37;;
4106;SDS011;21906;50.812;7.132;2023-04-06T05:51:28;17.27;;;10.60;;
4106;SDS011;21906;50.812;7.132;2023-04-06T05:53:54;17.17;;;10.70;;
4106;SDS011;21906;50.812;7.132;2023-04-06T05:56:19;12.83;;;9.60;;
4106;SDS011;21906;50.812;7.132;2023-04-06T05:58:45;12.10;;;9.70;;
4106;SDS011;21906;50.812;7.132;2023-04-06T06:01:11;15.17;;;10.43;;
4106;SDS011;21906;50.812;7.132;2023-04-06T06:03:37;13.40;;;10.00;;
4106;SDS011;21906;50.812;7.132;2023-04-06T06:06:03;13.27;;;10.03;;
4106;SDS011;21906;50.812;7.132;2023-04-06T06:08:29;18.50;;;10.10;;
4106;SDS011;21906;50.812;7.132;2023-04-06T06:10:55;16.03;;;10.23;;
4106;SDS011;21906;50.812;7.132;2023-04-06T06:13:21;14.60;;;9.63;;
4106;SDS011;21906;50.812;7.132;2023-04-06T06:15:48;16.27;;;10.23;;
4106;SDS011;21906;50.812;7.132;2023-04-06T06:18:15;11.40;;;9.17;;
4106;SDS011;21906;50.812;7.132;2023-04-06T06:20:40;15.60;;;10.27;;
4106;SDS011;21906;50.812;7.132;2023-04-06T06:23:06;13.47;;;9.40;;
4106;SDS011;21906;50.812;7.132;2023-04-06T06:25:32;15.27;;;9.63;;
4106;SDS011;21906;50.812;7.132;2023-04-06T06:27:58;14.20;;;9.30;;
4106;SDS011;21906;50.812;7.132;2023-04-06T06:30:24;15.03;;;9.30;;
4106;SDS011;21906;50.812;7.132;2023-04-06T06:32:51;12.33;;;9.37;;
4106;SDS011;21906;50.812;7.132;2023-04-06T06:35:16;13.97;;;10.57;;
4106;SDS011;21906;50.812;7.132;2023-04-06T06:37:42;14.73;;;10.10;;
4106;SDS011;21906;50.812;7.132;2023-04-06T06:40:09;13.13;;;9.87;;
4106;SDS011;21906;50.812;7.132;2023-04-06T06:42:38;15.20;;;9.33;;
4106;SDS011;21906;50.812;7.132;2023-04-06T06:45:04;13.30;;;9.60;;
4106;SDS011;21906;50.812;7.132;2023-04-06T06:47:30;9.53;;;8.07;;
4106;SDS011;21906;50.812;7.132;2023-04-06T06:49:56;11.37;;;9.10;;
4106;SDS011;21906;50.812;7.132;2023-04-06T06:52:22;12.30;;;9.20;;
4106;SDS011;21906;50.812;7.132;2023-04-06T06:54:49;17.27;;;10.40;;
4106;SDS011;21906;50.812;7.132;2023-04-06T06:57:14;14.70;;;8.57;;
4106;SDS011;21906;50.812;7.132;2023-04-06T06:59:40;12.07;;;8.83;;
4106;SDS011;21906;50.812;7.132;2023-04-06T07:02:06;11.23;;;8.90;;
4106;SDS011;21906;50.812;7.132;2023-04-06T07:04:31;12.40;;;8.90;;
4106;SDS011;21906;50.812;7.132;2023-04-06T07:06:57;10.00;;;8.20;;
4106;SDS011;21906;50.812;7.132;2023-04-06T07:09:23;10.60;;;8.87;;
4106;SDS011;21906;50.812;7.132;2023-04-06T07:11:48;14.80;;;9.50;;
4106;SDS011;21906;50.812;7.132;2023-04-06T07:14:15;14.03;;;9.57;;
4106;SDS011;21906;50.812;7.132;2023-04-06T07:16:41;10.27;;;8.23;;
4106;SDS011;21906;50.812;7.132;2023-04-06T07:19:06;11.37;;;9.27;;
4106;SDS011;21906;50.812;7.132;2023-04-06T07:21:34;13.00;;;9.13;;
4106;SDS011;21906;50.812;7.132;2023-04-06T07:24:00;10.63;;;8.20;;
4106;SDS011;21906;50.812;7.132;2023-04-06T07:26:26;16.53;;;9.20;;
4106;SDS011;21906;50.812;7.132;2023-04-06T07:28:52;10.60;;;8.00;;
4106;SDS011;21906;50.812;7.132;2023-04-06T07:31:18;9.80;;;8.37;;
4106;SDS011;21906;50.812;7.132;2023-04-06T07:33:44;10.67;;;8.70;;
4106;SDS011;21906;50.812;7.132;2023-04-06T07:36:09;9.80;;;8.80;;
4106;SDS011;21906;50.812;7.132;2023-04-06T07:38:35;11.13;;;8.20;;
4106;SDS011;21906;50.812;7.132;2023-04-06T07:41:01;12.50;;;8.53;;
4106;SDS011;21906;50.812;7.132;2023-04-06T07:43:29;11.40;;;9.13;;
4106;SDS011;21906;50.812;7.132;2023-04-06T07:45:55;11.97;;;8.27;;
4106;SDS011;21906;50.812;7.132;2023-04-06T07:48:22;14.53;;;9.93;;
4106;SDS011;21906;50.812;7.132;2023-04-06T07:50:48;11.90;;;8.90;;
4106;SDS011;21906;50.812;7.132;2023-04-06T07:53:14;11.63;;;9.53;;
4106;SDS011;21906;50.812;7.132;2023-04-06T07:55:39;16.43;;;9.60;;
4106;SDS011;21906;50.812;7.132;2023-04-06T07:58:05;15.17;;;8.90;;
4106;SDS011;21906;50.812;7.132;2023-04-06T08:00:31;14.63;;;9.30;;
4106;SDS011;21906;50.812;7.132;2023-04-06T08:02:57;12.70;;;9.90;;
4106;SDS011;21906;50.812;7.132;2023-04-06T08:05:23;11.77;;;9.70;;
4106;SDS011;21906;50.812;7.132;2023-04-06T08:07:48;13.83;;;10.00;;
4106;SDS011;21906;50.812;7.132;2023-04-06T08:10:14;13.43;;;9.80;;
4106;SDS011;21906;50.812;7.132;2023-04-06T08:12:40;13.13;;;10.10;;
4106;SDS011;21906;50.812;7.132;2023-04-06T08:15:05;11.07;;;9.47;;
4106;SDS011;21906;50.812;7.132;2023-04-06T08:17:31;12.60;;;10.27;;
4106;SDS011;21906;50.812;7.132;2023-04-06T08:19:58;12.30;;;9.97;;
4106;SDS011;21906;50.812;7.132;2023-04-06T08:22:24;12.23;;;9.50;;
4106;SDS011;21906;50.812;7.132;2023-04-06T08:24:50;13.10;;;9.63;;
4106;SDS011;21906;50.812;7.132;2023-04-06T08:27:16;14.83;;;10.20;;
4106;SDS011;21906;50.812;7.132;2023-04-06T08:29:42;11.10;;;9.30;;
4106;SDS011;21906;50.812;7.132;2023-04-06T08:32:07;14.27;;;9.67;;
4106;SDS011;21906;50.812;7.132;2023-04-06T08:34:33;13.97;;;9.90;;
4106;SDS011;21906;50.812;7.132;2023-04-06T08:37:00;13.70;;;10.33;;
4106;SDS011;21906;50.812;7.132;2023-04-06T08:39:26;13.67;;;9.63;;
4106;SDS011;21906;50.812;7.132;2023-04-06T08:41:52;12.67;;;9.87;;
4106;SDS011;21906;50.812;7.132;2023-04-06T08:44:21;13.17;;;9.93;;
4106;SDS011;21906;50.812;7.132;2023-04-06T08:46:47;12.23;;;9.00;;
4106;SDS011;21906;50.812;7.132;2023-04-06T08:49:15;14.63;;;9.97;;
4106;SDS011;21906;50.812;7.132;2023-04-06T08:51:41;12.40;;;9.97;;
4106;SDS011;21906;50.812;7.132;2023-04-06T08:54:07;12.50;;;10.10;;
4106;SDS011;21906;50.812;7.132;2023-04-06T08:56:33;15.53;;;9.60;;
4106;SDS011;21906;50.812;7.132;2023-04-06T08:59:03;14.40;;;10.17;;
4106;SDS011;21906;50.812;7.132;2023-04-06T09:01:30;11.63;;;9.17;;
4106;SDS011;21906;50.812;7.132;2023-04-06T09:03:58;10.80;;;8.93;;
4106;SDS011;21906;50.812;7.132;2023-04-06T09:06:30;13.17;;;9.90;;
4106;SDS011;21906;50.812;7.132;2023-04-06T09:08:56;13.67;;;10.70;;
4106;SDS011;21906;50.812;7.132;2023-04-06T09:11:23;12.37;;;10.00;;
4106;SDS011;21906;50.812;7.132;2023-04-06T09:13:52;15.20;;;11.00;;
4106;SDS011;21906;50.812;7.132;2023-04-06T09:16:19;15.30;;;9.77;;
4106;SDS011;21906;50.812;7.132;2023-04-06T09:18:46;11.70;;;10.00;;
4106;SDS011;21906;50.812;7.132;2023-04-06T09:21:12;13.90;;;10.50;;
4106;SDS011;21906;50.812;7.132;2023-04-06T09:23:38;14.17;;;9.90;;
4106;SDS011;21906;50.812;7.132;2023-04-06T09:26:11;13.40;;;10.33;;
4106;SDS011;21906;50.812;7.132;2023-04-06T09:28:45;13.40;;;9.90;;
4106;SDS011;21906;50.812;7.132;2023-04-06T09:31:16;13.77;;;10.03;;
4106;SDS011;21906;50.812;7.132;2023-04-06T09:33:46;14.77;;;10.23;;
4106;SDS011;21906;50.812;7.132;2023-04-06T09:36:12;14.30;;;10.53;;
4106;SDS011;21906;50.812;7.132;2023-04-06T09:38:53;14.80;;;10.33;;
4106;SDS011;21906;50.812;7.132;2023-04-06T09:41:37;13.50;;;10.10;;
4106;SDS011;21906;50.812;7.132;2023-04-06T09:44:05;13.97;;;9.23;;
4106;SDS011;21906;50.812;7.132;2023-04-06T09:46:32;13.40;;;9.93;;
4106;SDS011;21906;50.812;7.132;2023-04-06T09:49:04;14.27;;;9.83;;
4106;SDS011;21906;50.812;7.132;2023-04-06T09:51:41;16.20;;;10.03;;
4106;SDS011;21906;50.812;7.132;2023-04-06T09:54:07;14.43;;;9.70;;
4106;SDS011;21906;50.812;7.132;2023-04-06T09:56:39;13.23;;;8.67;;
4106;SDS011;21906;50.812;7.132;2023-04-06T10:02:30;14.63;;;9.30;;
4106;SDS011;21906;50.812;7.132;2023-04-06T10:05:09;11.70;;;8.43;;
4106;SDS011;21906;50.812;7.132;2023-04-06T10:07:37;13.00;;;9.30;;
4106;SDS011;21906;50.812;7.132;2023-04-06T10:10:04;13.53;;;9.20;;
4106;SDS011;21906;50.812;7.132;2023-04-06T10:12:30;13.37;;;9.33;;
4106;SDS011;21906;50.812;7.132;2023-04-06T10:14:56;13.70;;;9.70;;
4106;SDS011;21906;50.812;7.132;2023-04-06T10:17:22;12.73;;;9.20;;
4106;SDS011;21906;50.812;7.132;2023-04-06T10:19:51;11.70;;;8.73;;
4106;SDS011;21906;50.812;7.132;2023-04-06T10:22:23;13.97;;;9.50;;
4106;SDS011;21906;50.812;7.132;2023-04-06T10:24:56;12.73;;;9.10;;
4106;SDS011;21906;50.812;7.132;2023-04-06T10:27:29;13.50;;;9.57;;
4106;SDS011;21906;50.812;7.132;2023-04-06T10:30:00;13.27;;;9.00;;
4106;SDS011;21906;50.812;7.132;2023-04-06T10:32:37;13.60;;;9.43;;
4106;SDS011;21906;50.812;7.132;2023-04-06T10:35:11;16.43;;;10.63;;
4106;SDS011;21906;50.812;7.132;2023-04-06T10:37:47;14.13;;;10.27;;
4106;SDS011;21906;50.812;7.132;2023-04-06T10:40:26;14.47;;;10.53;;
4106;SDS011;21906;50.812;7.132;2023-04-06T10:42:53;14.97;;;10.50;;
4106;SDS011;21906;50.812;7.132;2023-04-06T10:45:23;12.20;;;9.50;;
4106;SDS011;21906;50.812;7.132;2023-04-06T10:47:53;15.70;;;10.70;;
4106;SDS011;21906;50.812;7.132;2023-04-06T10:50:20;16.30;;;11.00;;
4106;SDS011;21906;50.812;7.132;2023-04-06T10:52:46;17.80;;;10.97;;
4106;SDS011;21906;50.812;7.132;2023-04-06T10:55:16;17.93;;;11.57;;
4106;SDS011;21906;50.812;7.132;2023-04-06T10:57:42;16.27;;;10.47;;
4106;SDS011;21906;50.812;7.132;2023-04-06T11:00:08;18.37;;;11.73;;
4106;SDS011;21906;50.812;7.132;2023-04-06T11:02:37;18.60;;;12.17;;
4106;SDS011;21906;50.812;7.132;2023-04-06T11:05:03;16.97;;;11.70;;
4106;SDS011;21906;50.812;7.132;2023-04-06T11:07:29;15.97;;;10.57;;
4106;SDS011;21906;50.812;7.132;2023-04-06T11:09:55;15.97;;;11.00;;
4106;SDS011;21906;50.812;7.132;2023-04-06T11:12:25;16.10;;;10.90;;
4106;SDS011;21906;50.812;7.132;2023-04-06T11:15:01;15.60;;;10.30;;
4106;SDS011;21906;50.812;7.132;2023-04-06T11:17:31;13.87;;;10.00;;
4106;SDS011;21906;50.812;7.132;2023-04-06T11:19:59;16.43;;;10.50;;
4106;SDS011;21906;50.812;7.132;2023-04-06T11:22:25;19.93;;;11.63;;
4106;SDS011;21906;50.812;7.132;2023-04-06T11:24:51;16.50;;;11.13;;
4106;SDS011;21906;50.812;7.132;2023-04-06T11:27:18;15.20;;;10.30;;
4106;SDS011;21906;50.812;7.132;2023-04-06T11:29:44;15.03;;;10.53;;
4106;SDS011;21906;50.812;7.132;2023-04-06T11:32:21;15.13;;;10.27;;
4106;SDS011;21906;50.812;7.132;2023-04-06T11:34:47;14.20;;;10.00;;
4106;SDS011;21906;50.812;7.132;2023-04-06T11:37:13;15.30;;;10.50;;
4106;SDS011;21906;50.812;7.132;2023-04-06T11:42:06;15.90;;;11.70;;
4106;SDS011;21906;50.812;7.132;2023-04-06T11:47:05;14.73;;;10.40;;
4106;SDS011;21906;50.812;7.132;2023-04-06T11:49:33;17.37;;;11.10;;
4106;SDS011;21906;50.812;7.132;2023-04-06T11:52:02;16.50;;;11.17;;
4106;SDS011;21906;50.812;7.132;2023-04-06T11:54:39;14.83;;;10.37;;
4106;SDS011;21906;50.812;7.132;2023-04-06T11:57:05;15.30;;;10.67;;
4106;SDS011;21906;50.812;7.132;2023-04-06T11:59:33;13.73;;;9.57;;
4106;SDS011;21906;50.812;7.132;2023-04-06T12:02:03;14.63;;;10.90;;
4106;SDS011;21906;50.812;7.132;2023-04-06T12:04:29;15.00;;;10.80;;
4106;SDS011;21906;50.812;7.132;2023-04-06T12:06:55;14.97;;;10.13;;
4106;SDS011;21906;50.812;7.132;2023-04-06T12:09:21;17.30;;;10.63;;
4106;SDS011;21906;50.812;7.132;2023-04-06T12:11:47;15.03;;;10.60;;
4106;SDS011;21906;50.812;7.132;2023-04-06T12:14:13;14.53;;;10.33;;
4106;SDS011;21906;50.812;7.132;2023-04-06T12:16:38;13.60;;;10.00;;
4106;SDS011;21906;50.812;7.132;2023-04-06T12:19:05;12.83;;;8.97;;
4106;SDS011;21906;50.812;7.132;2023-04-06T12:21:31;17.03;;;10.20;;
4106;SDS011;21906;50.812;7.132;2023-04-06T12:23:57;15.43;;;10.13;;
4106;SDS011;21906;50.812;7.132;2023-04-06T12:26:24;11.43;;;9.53;;
4106;SDS011;21906;50.812;7.132;2023-04-06T12:28:50;13.53;;;10.10;;
4106;SDS011;21906;50.812;7.132;2023-04-06T12:31:20;14.57;;;10.40;;
4106;SDS011;21906;50.812;7.132;2023-04-06T12:33:47;14.17;;;10.20;;
4106;SDS011;21906;50.812;7.132;2023-04-06T12:36:16;12.57;;;10.30;;
4106;SDS011;21906;50.812;7.132;2023-04-06T12:38:49;16.30;;;10.33;;
4106;SDS011;21906;50.812;7.132;2023-04-06T12:41:16;15.67;;;9.97;;
4106;SDS011;21906;50.812;7.132;2023-04-06T12:43:42;15.00;;;10.07;;
4106;SDS011;21906;50.812;7.132;2023-04-06T12:46:09;14.70;;;10.17;;
4106;SDS011;21906;50.812;7.132;2023-04-06T12:48:35;12.70;;;9.73;;
4106;SDS011;21906;50.812;7.132;2023-04-06T12:51:02;13.43;;;9.10;;
4106;SDS011;21906;50.812;7.132;2023-04-06T12:53:32;11.67;;;9.47;;
4106;SDS011;21906;50.812;7.132;2023-04-06T12:55:59;12.13;;;9.67;;
4106;SDS011;21906;50.812;7.132;2023-04-06T12:58:25;13.30;;;9.43;;
4106;SDS011;21906;50.812;7.132;2023-04-06T13:00:55;12.10;;;8.90;;
4106;SDS011;21906;50.812;7.132;2023-04-06T13:03:22;14.10;;;9.20;;
4106;SDS011;21906;50.812;7.132;2023-04-06T13:05:49;13.83;;;9.73;;
4106;SDS011;21906;50.812;7.132;2023-04-06T13:08:16;11.13;;;8.80;;
4106;SDS011;21906;50.812;7.132;2023-04-06T13:10:43;12.57;;;9.70;;
4106;SDS011;21906;50.812;7.132;2023-04-06T13:13:13;10.87;;;9.10;;
4106;SDS011;21906;50.812;7.132;2023-04-06T13:15:40;13.00;;;9.13;;
4106;SDS011;21906;50.812;7.132;2023-04-06T13:18:06;12.43;;;9.00;;
4106;SDS011;21906;50.812;7.132;2023-04-06T13:20:32;13.07;;;9.37;;
4106;SDS011;21906;50.812;7.132;2023-04-06T13:22:58;11.40;;;8.87;;
4106;SDS011;21906;50.812;7.132;2023-04-06T13:25:23;11.47;;;8.53;;
4106;SDS011;21906;50.812;7.132;2023-04-06T13:27:49;11.00;;;8.90;;
4106;SDS011;21906;50.812;7.132;2023-04-06T13:30:15;9.83;;;8.40;;
4106;SDS011;21906;50.812;7.132;2023-04-06T13:32:41;11.63;;;8.63;;
4106;SDS011;21906;50.812;7.132;2023-04-06T13:35:07;12.37;;;8.57;;
4106;SDS011;21906;50.812;7.132;2023-04-06T13:37:33;10.00;;;7.50;;
4106;SDS011;21906;50.812;7.132;2023-04-06T13:39:59;6.80;;;5.87;;
4106;SDS011;21906;50.812;7.132;2023-04-06T13:42:27;6.33;;;5.73;;
4106;SDS011;21906;50.812;7.132;2023-04-06T13:44:53;6.43;;;5.43;;
4106;SDS011;21906;50.812;7.132;2023-04-06T13:47:18;6.67;;;5.40;;
4106;SDS011;21906;50.812;7.132;2023-04-06T13:49:45;7.37;;;5.50;;
4106;SDS011;21906;50.812;7.132;2023-04-06T13:52:11;6.53;;;5.53;;
4106;SDS011;21906;50.812;7.132;2023-04-06T13:54:37;10.10;;;7.60;;
4106;SDS011;21906;50.812;7.132;2023-04-06T13:57:03;7.40;;;6.60;;
4106;SDS011;21906;50.812;7.132;2023-04-06T13:59:36;6.27;;;5.60;;
4106;SDS011;21906;50.812;7.132;2023-04-06T14:02:03;7.67;;;6.00;;
4106;SDS011;21906;50.812;7.132;2023-04-06T14:04:29;7.30;;;6.30;;
4106;SDS011;21906;50.812;7.132;2023-04-06T14:06:56;8.23;;;6.93;;
4106;SDS011;21906;50.812;7.132;2023-04-06T14:09:22;10.07;;;7.10;;
4106;SDS011;21906;50.812;7.132;2023-04-06T14:11:48;7.73;;;6.87;;
4106;SDS011;21906;50.812;7.132;2023-04-06T14:14:15;7.90;;;7.07;;
4106;SDS011;21906;50.812;7.132;2023-04-06T14:16:41;9.27;;;7.67;;
4106;SDS011;21906;50.812;7.132;2023-04-06T14:19:09;9.70;;;8.10;;
4106;SDS011;21906;50.812;7.132;2023-04-06T14:21:36;8.00;;;7.00;;
4106;SDS011;21906;50.812;7.132;2023-04-06T14:24:04;9.23;;;7.50;;
4106;SDS011;21906;50.812;7.132;2023-04-06T14:26:30;7.80;;;7.00;;
4106;SDS011;21906;50.812;7.132;2023-04-06T14:28:57;7.93;;;7.13;;
4106;SDS011;21906;50.812;7.132;2023-04-06T14:31:23;9.53;;;7.87;;
4106;SDS011;21906;50.812;7.132;2023-04-06T14:33:49;7.80;;;7.00;;
4106;SDS011;21906;50.812;7.132;2023-04-06T14:36:15;9.20;;;7.20;;
4106;SDS011;21906;50.812;7.132;2023-04-06T14:38:40;10.37;;;7.73;;
4106;SDS011;21906;50.812;7.132;2023-04-06T14:41:08;8.60;;;7.47;;
4106;SDS011;21906;50.812;7.132;2023-04-06T14:43:39;8.53;;;7.37;;
4106;SDS011;21906;50.812;7.132;2023-04-06T14:46:05;9.73;;;7.50;;
4106;SDS011;21906;50.812;7.132;2023-04-06T14:48:30;9.90;;;7.37;;
4106;SDS011;21906;50.812;7.132;2023-04-06T14:50:56;11.53;;;8.33;;